Time;durP1;ratioP1;P1;durP2;ratioP2;P2;SDS_P1;SDS_P2;PMS_P1;PMS_P2;Temp;Humidity;BMP_temperature;BMP_pressure;BME280_temperature;BME280_humidity;BME280_pressure;Samples;Min_cycle;Max_cycle;Signal;HPM_P1;HPM_P2
2023/01/10 16:13:27;;;;;;;69.30;37.50;;;;;;;5.22;100.00;99246.06;107972;1276;558138;-40
2023/01/10 16:16:11;;;;;;;62.90;32.90;;;;;;;5.26;100.00;99246.10;108271;1300;22591;-40
2023/01/10 16:18:36;;;;;;;46.80;26.20;;;;;;;5.29;100.00;99251.55;108375;1300;22957;-37
2023/01/10 16:21:05;;;;;;;50.40;28.50;;;;;;;5.27;100.00;99258.07;107540;1300;25401;-33
2023/01/10 16:23:35;;;;;;;46.80;25.50;;;;;;;5.27;100.00;99261.38;108643;1298;22261;-38
2023/01/10 16:26:07;;;;;;;44.40;25.70;;;;;;;5.27;100.00;99263.80;108587;1297;163454;-38
2023/01/10 16:28:36;;;;;;;44.40;23.90;;;;;;;5.26;100.00;99261.39;108858;1298;22911;-41
2023/01/10 16:31:03;;;;;;;45.40;23.10;;;;;;;5.27;100.00;99254.74;108852;1298;23015;-37
2023/01/10 16:33:29;;;;;;;48.90;28.80;;;;;;;5.29;100.00;99251.73;108820;1292;22452;-40
2023/01/10 16:35:57;;;;;;;38.80;22.40;;;;;;;5.29;100.00;99253.61;108836;1298;22315;-39
2023/01/10 16:38:24;;;;;;;36.00;21.40;;;;;;;5.25;100.00;99248.54;108842;1298;22274;-40
2023/01/10 16:40:56;;;;;;;41.20;20.60;;;;;;;5.20;100.00;99255.14;108830;1298;22277;-37
2023/01/10 16:43:25;;;;;;;40.60;22.70;;;;;;;5.19;100.00;99256.76;108887;1295;22274;-41
2023/01/10 16:45:53;;;;;;;36.30;21.70;;;;;;;5.20;100.00;99260.56;108815;1297;23046;-40
2023/01/10 16:48:20;;;;;;;41.30;22.90;;;;;;;5.23;100.00;99263.59;108890;1298;22226;-43
2023/01/10 16:50:47;;;;;;;42.70;24.20;;;;;;;5.24;100.00;99266.32;108662;1297;22423;-39
2023/01/10 16:53:15;;;;;;;40.70;22.40;;;;;;;5.30;100.00;99271.15;108835;1298;22230;-42
2023/01/10 16:55:43;;;;;;;38.30;23.60;;;;;;;5.32;100.00;99273.34;108895;1298;22487;-41
2023/01/10 16:58:10;;;;;;;42.60;22.00;;;;;;;5.31;100.00;99280.32;108831;1297;22973;-39
2023/01/10 17:00:37;;;;;;;36.90;22.20;;;;;;;5.33;99.98;99280.27;108858;1298;22244;-41
2023/01/10 17:03:11;;;;;;;37.20;21.70;;;;;;;5.36;99.93;99280.52;108852;1290;22227;-40
2023/01/10 17:05:37;;;;;;;40.30;21.80;;;;;;;5.38;99.80;99284.62;108636;1298;22275;-38
2023/01/10 17:08:04;;;;;;;40.30;23.40;;;;;;;5.38;99.86;99284.44;108800;1297;22252;-41
2023/01/10 17:10:31;;;;;;;42.50;24.10;;;;;;;5.41;99.95;99287.64;108848;1297;23083;-41
2023/01/10 17:12:57;;;;;;;50.30;27.80;;;;;;;5.48;99.90;99291.56;108874;1298;22175;-37
2023/01/10 17:15:22;;;;;;;41.60;23.00;;;;;;;5.52;99.72;99299.25;108828;1298;22453;-37
2023/01/10 17:17:47;;;;;;;45.30;26.70;;;;;;;5.56;99.55;99309.04;108901;1298;22572;-37
2023/01/10 17:20:14;;;;;;;50.10;27.40;;;;;;;5.60;99.26;99309.06;108873;1295;22246;-38
2023/01/10 17:22:41;;;;;;;39.40;24.20;;;;;;;5.61;99.07;99314.79;108834;1294;22351;-39
2023/01/10 17:25:13;;;;;;;42.70;25.00;;;;;;;5.58;98.78;99319.95;108847;1292;22212;-43
2023/01/10 17:27:38;;;;;;;41.00;24.10;;;;;;;5.60;98.64;99322.13;108624;1298;22256;-40
2023/01/10 17:30:04;;;;;;;44.60;25.90;;;;;;;5.56;98.58;99318.43;108828;1298;22232;-39
2023/01/10 17:32:29;;;;;;;44.50;25.50;;;;;;;5.56;98.52;99322.78;108830;1298;22375;-38
2023/01/10 17:34:55;;;;;;;41.40;24.90;;;;;;;5.56;98.46;99322.42;108854;1298;22259;-37
2023/01/10 17:37:20;;;;;;;46.30;25.00;;;;;;;5.61;98.47;99325.42;108819;1291;22385;-38
2023/01/10 17:39:46;;;;;;;46.60;27.40;;;;;;;5.62;98.33;99327.63;108869;1298;23102;-39
2023/01/10 17:42:11;;;;;;;44.00;25.90;;;;;;;5.62;98.06;99330.59;108822;1298;22284;-37
2023/01/10 17:44:36;;;;;;;47.40;27.10;;;;;;;5.65;98.08;99328.05;108810;1298;24072;-42
2023/01/10 17:47:02;;;;;;;45.40;26.60;;;;;;;5.70;98.22;99328.21;108849;1298;22556;-40
2023/01/10 17:49:27;;;;;;;41.60;25.30;;;;;;;5.71;97.88;99326.08;108831;1298;22455;-38
2023/01/10 17:51:53;;;;;;;46.30;25.10;;;;;;;5.63;96.94;99329.67;108838;1298;22254;-39
2023/01/10 17:54:19;;;;;;;44.00;26.30;;;;;;;5.64;96.81;99333.29;108866;1298;22244;-40
2023/01/10 17:56:45;;;;;;;49.20;27.50;;;;;;;5.64;96.80;99337.28;108837;1298;22422;-39
2023/01/10 17:59:10;;;;;;;52.40;29.20;;;;;;;5.68;97.00;99341.35;108851;1291;22184;-39
2023/01/10 18:01:36;;;;;;;48.00;27.70;;;;;;;5.68;96.95;99343.42;108816;1298;23197;-40
2023/01/10 18:04:01;;;;;;;46.80;26.60;;;;;;;5.69;96.98;99346.17;108800;1298;22333;-40
2023/01/10 18:06:27;;;;;;;44.60;27.10;;;;;;;5.69;96.89;99351.06;108793;1298;22243;-38
2023/01/10 18:08:53;;;;;;;46.90;26.70;;;;;;;5.65;96.66;99354.48;108796;1298;22331;-39
2023/01/10 18:11:18;;;;;;;43.40;26.70;;;;;;;5.64;96.69;99357.48;108813;1298;23061;-37
2023/01/10 18:13:44;;;;;;;50.10;27.10;;;;;;;5.64;96.80;99357.48;108806;1298;22518;-40
2023/01/10 18:16:09;;;;;;;54.60;30.50;;;;;;;5.63;96.67;99359.94;108801;1298;22400;-41
2023/01/10 18:18:35;;;;;;;76.50;39.50;;;;;;;5.57;96.53;99359.10;108838;1298;23106;-41
2023/01/10 18:21:02;;;;;;;54.30;31.40;;;;;;;5.54;96.79;99361.31;108823;1298;22975;-37
2023/01/10 18:23:30;;;;;;;47.60;27.10;;;;;;;5.55;96.87;99362.65;108870;1298;23046;-39
2023/01/10 18:26:03;;;;;;;;;;;;;;;5.49;96.85;99363.54;108841;1298;23287;-42
2023/01/10 18:28:34;;;;;;;41.90;25.90;;;;;;;5.47;97.11;99367.09;108826;1298;22318;-40
2023/01/10 18:31:03;;;;;;;47.10;26.60;;;;;;;5.46;97.13;99365.91;108869;1298;22276;-39
2023/01/10 18:33:29;;;;;;;47.40;25.40;;;;;;;5.44;97.25;99365.79;108822;1298;23256;-39
2023/01/10 18:35:55;;;;;;;52.60;29.30;;;;;;;5.47;97.28;99365.85;108831;1283;22981;-42
2023/01/10 18:38:21;;;;;;;44.90;27.60;;;;;;;5.45;97.51;99369.22;108850;1298;22271;-41
2023/01/10 18:40:49;;;;;;;44.30;26.90;;;;;;;5.49;97.54;99374.83;108843;1298;22262;-41
2023/01/10 18:43:15;;;;;;;52.30;29.60;;;;;;;5.44;97.65;99377.11;108852;1298;23148;-40
2023/01/10 18:45:42;;;;;;;54.70;30.00;;;;;;;5.47;97.82;99381.54;108827;1298;22273;-40
2023/01/10 18:48:07;;;;;;;48.50;27.20;;;;;;;5.47;97.83;99385.70;108834;1298;23297;-41
2023/01/10 18:50:33;;;;;;;58.10;30.40;;;;;;;5.44;97.86;99385.10;108857;1298;22256;-41
2023/01/10 18:52:58;;;;;;;57.20;32.40;;;;;;;5.46;98.04;99386.25;108819;1298;22310;-38
2023/01/10 18:55:24;;;;;;;92.70;35.70;;;;;;;5.46;97.95;99382.92;108865;1298;23393;-38
2023/01/10 18:57:49;;;;;;;88.60;38.00;;;;;;;5.46;98.10;99383.64;108865;1298;23918;-42
2023/01/10 19:00:15;;;;;;;124.60;48.90;;;;;;;5.47;98.14;99385.17;108850;1298;22218;-38
2023/01/10 19:02:40;;;;;;;145.10;49.00;;;;;;;5.49;98.05;99389.11;108848;1298;22398;-41
2023/01/10 19:05:08;;;;;;;126.50;48.90;;;;;;;5.46;97.99;99391.14;108858;1298;23023;-41
2023/01/10 19:07:34;;;;;;;97.80;41.10;;;;;;;5.35;98.38;99387.30;108869;1291;23331;-40
2023/01/10 19:10:00;;;;;;;89.70;41.50;;;;;;;5.33;98.69;99388.39;108868;1298;22219;-41
2023/01/10 19:12:26;;;;;;;67.40;37.80;;;;;;;5.33;98.73;99390.50;108856;1298;22909;-40
2023/01/10 19:14:51;;;;;;;54.40;30.60;;;;;;;5.33;98.57;99396.23;108874;1298;22256;-40
2023/01/10 19:17:17;;;;;;;62.10;32.10;;;;;;;5.30;98.85;99398.56;108860;1298;22237;-40
2023/01/10 19:19:42;;;;;;;61.60;30.90;;;;;;;5.33;98.75;99400.39;108852;1292;22430;-36
2023/01/10 19:22:08;;;;;;;54.90;29.90;;;;;;;5.30;99.16;99403.80;108846;1298;22356;-41
2023/01/10 19:24:36;;;;;;;65.10;31.70;;;;;;;5.30;99.53;99408.48;108845;1298;22244;-42
2023/01/10 19:27:02;;;;;;;55.80;29.30;;;;;;;5.34;99.54;99411.66;108853;1298;22264;-41
2023/01/10 19:29:31;;;;;;;63.80;30.50;;;;;;;5.35;99.41;99410.93;108863;1298;22420;-40
2023/01/10 19:31:57;;;;;;;74.00;31.60;;;;;;;5.35;99.42;99407.98;108833;1298;22282;-38
2023/01/10 19:34:23;;;;;;;60.20;32.20;;;;;;;5.39;99.61;99410.48;108857;1298;22487;-39
2023/01/10 19:36:48;;;;;;;59.20;30.60;;;;;;;5.45;99.58;99415.15;108874;1298;22473;-38
2023/01/10 19:39:14;;;;;;;52.40;28.60;;;;;;;5.50;99.43;99414.11;108847;1298;22246;-40
2023/01/10 19:41:40;;;;;;;48.00;27.20;;;;;;;5.49;99.02;99413.81;108867;1298;22403;-39
2023/01/10 19:44:11;;;;;;;46.30;28.00;;;;;;;5.47;99.00;99417.00;108834;1298;22898;-42
2023/01/10 19:46:37;;;;;;;56.60;28.00;;;;;;;5.45;98.81;99421.23;108846;1298;22212;-38
2023/01/10 19:49:07;;;;;;;55.70;29.20;;;;;;;5.44;98.97;99421.25;108864;1298;22394;-39
2023/01/10 19:51:39;;;;;;;46.40;24.90;;;;;;;5.42;98.96;99420.62;108849;1298;22458;-38
2023/01/10 19:54:06;;;;;;;43.70;25.80;;;;;;;5.43;99.15;99417.80;108859;1298;22222;-40
2023/01/10 19:56:33;;;;;;;52.50;25.80;;;;;;;5.43;99.15;99416.94;108845;1298;23264;-41
2023/01/10 19:58:59;;;;;;;52.10;26.20;;;;;;;5.43;99.05;99416.77;108861;1297;22090;-39
2023/01/10 20:01:27;;;;;;;47.80;25.90;;;;;;;5.42;99.34;99416.80;108841;1298;23016;-38
2023/01/10 20:03:55;;;;;;;44.40;25.60;;;;;;;5.41;99.44;99413.70;108855;1298;23084;-40
2023/01/10 20:06:23;;;;;;;52.50;26.50;;;;;;;5.43;99.15;99411.56;108842;1298;22531;-40
2023/01/10 20:08:49;;;;;;;68.10;28.40;;;;;;;5.36;99.39;99409.70;108854;1298;22255;-40
2023/01/10 20:11:16;;;;;;;46.70;25.60;;;;;;;5.37;99.62;99407.05;108836;1298;22246;-40
2023/01/10 20:13:43;;;;;;;37.20;23.10;;;;;;;5.41;99.43;99407.27;108852;1298;23281;-41
2023/01/10 20:16:13;;;;;;;41.80;23.10;;;;;;;5.41;99.21;99409.70;108856;1298;22113;-41
2023/01/10 20:18:39;;;;;;;59.50;27.00;;;;;;;5.41;99.43;99410.23;108856;1298;22261;-40
2023/01/10 20:21:06;;;;;;;45.10;25.20;;;;;;;5.40;99.53;99412.34;108859;1298;22896;-40
2023/01/10 20:23:33;;;;;;;42.40;25.40;;;;;;;5.43;99.69;99417.30;108841;1292;22408;-39
2023/01/10 20:26:04;;;;;;;42.80;25.30;;;;;;;5.42;99.55;99416.65;108887;1298;22319;-40
2023/01/10 20:28:30;;;;;;;49.80;27.00;;;;;;;5.38;99.74;99415.70;108870;1298;22848;-41
2023/01/10 20:30:55;;;;;;;65.10;28.90;;;;;;;5.37;99.92;99413.65;108857;1298;22409;-39
2023/01/10 20:33:21;;;;;;;49.10;27.50;;;;;;;5.39;99.96;99411.86;108870;1298;22231;-39
2023/01/10 20:36:02;;;;;;;49.90;28.40;;;;;;;5.41;99.85;99413.70;108727;1298;22420;-40
2023/01/10 20:38:28;;;;;;;55.70;31.80;;;;;;;5.40;99.52;99413.55;108841;1298;22327;-40
2023/01/10 20:40:57;;;;;;;55.80;29.40;;;;;;;5.43;99.89;99418.00;108860;1298;22242;-41
2023/01/10 20:43:23;;;;;;;53.50;29.70;;;;;;;5.47;99.98;99418.92;108828;1298;22475;-40
2023/01/10 20:45:48;;;;;;;50.70;28.70;;;;;;;5.47;99.70;99421.02;108846;1297;23123;-38
2023/01/10 20:48:14;;;;;;;59.70;31.50;;;;;;;5.42;99.66;99423.76;108851;1298;22450;-39
2023/01/10 20:50:44;;;;;;;50.50;29.00;;;;;;;5.36;99.96;99421.50;108834;1298;22237;-38
2023/01/10 20:53:10;;;;;;;56.30;31.90;;;;;;;5.39;100.00;99424.01;108861;1298;22400;-40
2023/01/10 20:55:36;;;;;;;57.40;33.00;;;;;;;5.40;99.95;99419.82;108849;1298;23679;-38
2023/01/10 20:58:02;;;;;;;69.00;39.60;;;;;;;5.39;99.97;99420.89;108866;1298;22284;-37
2023/01/10 21:00:28;;;;;;;49.20;30.70;;;;;;;5.39;99.92;99422.98;108864;1298;22258;-37
2023/01/10 21:02:54;;;;;;;68.70;31.90;;;;;;;5.37;99.89;99426.34;108861;1297;22241;-40
2023/01/10 21:05:19;;;;;;;64.70;35.10;;;;;;;5.41;99.80;99425.17;108840;1298;22341;-39
2023/01/10 21:07:44;;;;;;;67.20;39.30;;;;;;;5.38;99.59;99422.66;108846;1298;22205;-39
2023/01/10 21:10:10;;;;;;;71.60;38.20;;;;;;;5.38;99.64;99421.45;108865;1298;23024;-39
2023/01/10 21:12:35;;;;;;;50.20;27.30;;;;;;;5.42;99.43;99421.51;108837;1298;23033;-41
2023/01/10 21:15:01;;;;;;;54.50;30.60;;;;;;;5.35;99.20;99422.23;108856;1298;23052;-38
2023/01/10 21:17:26;;;;;;;58.50;32.50;;;;;;;5.33;99.23;99424.38;108863;1298;22261;-42
2023/01/10 21:19:52;;;;;;;63.00;35.80;;;;;;;5.30;99.15;99425.17;108867;1298;23142;-40
2023/01/10 21:22:17;;;;;;;68.30;39.00;;;;;;;5.25;99.58;99425.86;108851;1298;22397;-38
2023/01/10 21:24:42;;;;;;;77.70;37.80;;;;;;;5.22;99.94;99428.91;108847;1298;22207;-39
2023/01/10 21:27:08;;;;;;;61.10;32.80;;;;;;;5.25;99.96;99428.13;108843;1298;22397;-38
2023/01/10 21:29:33;;;;;;;68.90;37.50;;;;;;;5.25;99.91;99427.77;108827;1298;22513;-41
2023/01/10 21:31:59;;;;;;;71.20;36.00;;;;;;;5.27;99.92;99426.64;108852;1298;23010;-41
2023/01/10 21:34:25;;;;;;;75.10;39.00;;;;;;;5.30;99.82;99427.59;108854;1298;22419;-37
2023/01/10 21:36:50;;;;;;;62.50;34.40;;;;;;;5.33;99.61;99429.09;108861;1298;22450;-42
2023/01/10 21:39:17;;;;;;;72.00;35.00;;;;;;;5.35;99.33;99434.77;108855;1298;22269;-40
2023/01/10 21:44:27;;;;;;;90.10;43.20;;;;;;;5.35;98.97;99434.77;108857;1298;22231;-40
2023/01/10 21:46:52;;;;;;;95.30;49.00;;;;;;;5.34;98.95;99439.13;108852;1298;23053;-39
2023/01/10 21:49:18;;;;;;;71.00;38.10;;;;;;;5.35;99.11;99442.23;108837;1298;22237;-40
2023/01/10 21:51:44;;;;;;;69.70;35.10;;;;;;;5.36;99.02;99441.33;108783;1295;22242;-39
2023/01/10 21:54:09;;;;;;;61.80;34.70;;;;;;;5.35;98.76;99445.16;108858;1298;22225;-39
2023/01/10 21:56:35;;;;;;;66.20;37.20;;;;;;;5.35;98.77;99443.27;108857;1297;22991;-38
2023/01/10 21:59:00;;;;;;;78.10;46.40;;;;;;;5.37;98.58;99446.68;108842;1298;23094;-38
2023/01/10 22:01:25;;;;;;;70.00;44.70;;;;;;;5.38;98.66;99443.35;108850;1293;22215;-41
2023/01/10 22:03:51;;;;;;;57.80;35.00;;;;;;;5.42;98.53;99442.54;108838;1298;22232;-40
2023/01/10 22:06:16;;;;;;;49.70;28.70;;;;;;;5.42;98.24;99443.23;108850;1298;22210;-43
2023/01/10 22:08:42;;;;;;;42.10;26.30;;;;;;;5.39;97.98;99444.20;108836;1298;23320;-38
2023/01/10 22:11:07;;;;;;;50.50;28.80;;;;;;;5.42;98.05;99442.55;108816;1298;22232;-39
2023/01/10 22:13:32;;;;;;;56.50;31.90;;;;;;;5.41;98.04;99448.14;108873;1298;22965;-41
2023/01/10 22:15:59;;;;;;;54.60;30.20;;;;;;;5.44;97.98;99451.67;108847;1276;22347;-40
2023/01/10 22:18:25;;;;;;;43.40;24.70;;;;;;;5.42;97.80;99451.91;108821;1298;22286;-37
2023/01/10 22:20:53;;;;;;;43.50;23.50;;;;;;;5.40;97.43;99449.91;108843;1298;22294;-41
2023/01/10 22:23:18;;;;;;;44.30;25.50;;;;;;;5.38;97.73;99450.82;108853;1298;22234;-40
2023/01/10 22:25:44;;;;;;;43.50;26.10;;;;;;;5.41;97.80;99454.39;108843;1298;22335;-40
2023/01/10 22:28:09;;;;;;;35.20;22.60;;;;;;;5.39;97.77;99453.05;108853;1298;23500;-41
2023/01/10 22:30:34;;;;;;;37.60;21.50;;;;;;;5.41;97.70;99450.74;108842;1298;22301;-37
2023/01/10 22:33:00;;;;;;;39.20;22.30;;;;;;;5.42;97.74;99448.45;108853;1298;22323;-41
2023/01/10 22:35:26;;;;;;;39.20;21.70;;;;;;;5.41;97.78;99450.05;108844;1298;22245;-37
2023/01/10 22:37:55;;;;;;;66.70;33.70;;;;;;;5.43;97.66;99447.89;108866;1298;22443;-40
2023/01/10 22:40:21;;;;;;;106.40;47.20;;;;;;;5.42;97.49;99450.02;108837;1298;22341;-38
2023/01/10 22:42:51;;;;;;;37.70;21.80;;;;;;;5.41;97.45;99454.39;108842;1298;22996;-37
2023/01/10 22:45:17;;;;;;;50.50;27.90;;;;;;;5.39;97.45;99457.58;108848;1298;22468;-43
2023/01/10 22:47:42;;;;;;;46.10;26.60;;;;;;;5.39;97.44;99454.60;108861;1298;22450;-40
2023/01/10 22:50:08;;;;;;;40.00;22.30;;;;;;;5.42;97.48;99451.77;108866;1298;22436;-41
2023/01/10 22:52:33;;;;;;;38.00;22.50;;;;;;;5.43;97.47;99450.52;108843;1298;23081;-41
2023/01/10 22:54:59;;;;;;;37.70;22.80;;;;;;;5.46;97.47;99449.73;108833;1298;22397;-41
2023/01/10 22:57:24;;;;;;;40.60;22.50;;;;;;;5.46;97.25;99453.20;108826;1298;22261;-40
2023/01/10 22:59:49;;;;;;;37.40;21.90;;;;;;;5.45;97.17;99456.19;108848;1298;22206;-41
2023/01/10 23:02:15;;;;;;;37.10;20.80;;;;;;;5.42;96.97;99460.25;108856;1298;22237;-40
2023/01/10 23:04:40;;;;;;;40.90;22.50;;;;;;;5.41;96.94;99464.11;108783;1298;22429;-36
2023/01/10 23:07:05;;;;;;;48.10;25.10;;;;;;;5.38;97.12;99463.32;108732;1299;22280;-38
2023/01/10 23:09:30;;;;;;;41.50;23.50;;;;;;;5.43;97.21;99464.95;108748;1299;23059;-40
2023/01/10 23:11:56;;;;;;;34.40;21.30;;;;;;;5.42;97.26;99459.40;108727;1299;22381;-38
2023/01/10 23:14:21;;;;;;;35.70;21.30;;;;;;;5.40;97.32;99455.29;108734;1299;23140;-37
2023/01/10 23:16:46;;;;;;;36.40;22.50;;;;;;;5.41;97.19;99459.42;108752;1299;22251;-37
2023/01/10 23:19:12;;;;;;;37.50;23.40;;;;;;;5.42;96.97;99460.44;108738;1299;22202;-38
2023/01/10 23:21:37;;;;;;;47.70;26.00;;;;;;;5.39;97.02;99459.48;108737;1299;23131;-40
2023/01/10 23:24:03;;;;;;;40.00;23.30;;;;;;;5.36;97.16;99460.60;108736;1299;22448;-41
2023/01/10 23:26:28;;;;;;;56.90;30.30;;;;;;;5.36;97.33;99460.10;108740;1299;22863;-39
2023/01/10 23:28:54;;;;;;;42.30;24.40;;;;;;;5.37;97.36;99463.20;108734;1299;22218;-42
2023/01/10 23:31:21;;;;;;;43.60;25.20;;;;;;;5.38;97.29;99462.30;108723;1299;22842;-38
2023/01/10 23:33:48;;;;;;;43.60;25.80;;;;;;;5.39;97.28;99461.75;108749;1299;22215;-39
2023/01/10 23:36:14;;;;;;;44.40;26.80;;;;;;;5.37;97.22;99461.64;108755;1299;22212;-38
2023/01/10 23:38:40;;;;;;;53.10;27.10;;;;;;;5.39;97.09;99461.93;108739;1299;22519;-39
2023/01/10 23:41:05;;;;;;;45.90;26.90;;;;;;;5.35;97.24;99464.84;108753;1299;22195;-38
2023/01/10 23:43:31;;;;;;;45.60;25.80;;;;;;;5.31;97.40;99467.02;108759;1299;22381;-37
2023/01/10 23:45:57;;;;;;;41.90;24.60;;;;;;;5.34;97.45;99460.34;108719;1299;23062;-42
2023/01/10 23:48:22;;;;;;;44.00;26.30;;;;;;;5.36;97.33;99462.55;108758;1299;22379;-42
2023/01/10 23:50:49;;;;;;;44.80;25.50;;;;;;;5.42;97.19;99462.02;108728;1299;22219;-40
2023/01/10 23:53:15;;;;;;;43.30;26.30;;;;;;;5.35;97.11;99459.97;108744;1299;23413;-42
2023/01/10 23:55:40;;;;;;;48.10;27.40;;;;;;;5.34;97.23;99456.00;108746;1299;23454;-37
2023/01/10 23:58:05;;;;;;;45.20;26.60;;;;;;;5.36;97.11;99460.48;108752;1299;22391;-38
